createdAt,value
2018-11-21T00:01:11.011Z,57.70
2018-11-21T00:03:39.532Z,57.70
2018-11-21T00:06:08.091Z,57.70
2018-11-21T00:08:36.604Z,57.70
2018-11-21T00:11:05.297Z,57.70
2018-11-21T00:13:33.864Z,58.30
2018-11-21T00:16:02.376Z,57.70
2018-11-21T00:18:30.939Z,57.70
2018-11-21T00:20:59.480Z,57.70
2018-11-21T00:23:28.008Z,57.70
2018-11-21T00:25:56.566Z,57.70
2018-11-21T00:28:25.091Z,57.70
2018-11-21T00:30:53.664Z,57.70
2018-11-21T00:33:22.216Z,57.70
2018-11-21T00:35:50.753Z,57.70
2018-11-21T00:38:19.275Z,57.70
2018-11-21T00:40:47.832Z,57.70
2018-11-21T00:43:16.362Z,57.70
2018-11-21T00:45:44.891Z,57.70
2018-11-21T00:48:13.444Z,58.10
2018-11-21T00:50:41.959Z,57.70
2018-11-21T00:53:10.494Z,57.70
2018-11-21T00:55:39.053Z,57.70
2018-11-21T00:58:07.575Z,57.80
2018-11-21T01:00:36.110Z,57.70
2018-11-21T01:03:04.653Z,57.70
2018-11-21T01:05:33.179Z,57.80
2018-11-21T01:08:01.735Z,57.80
2018-11-21T01:10:30.254Z,57.80
2018-11-21T01:12:58.796Z,57.80
2018-11-21T01:15:27.334Z,57.80
2018-11-21T01:17:55.943Z,57.80
2018-11-21T01:20:24.526Z,57.80
2018-11-21T01:22:53.077Z,57.80
2018-11-21T01:25:21.695Z,57.80
2018-11-21T01:27:50.243Z,57.90
2018-11-21T01:30:18.780Z,57.80
2018-11-21T01:32:47.435Z,57.80
2018-11-21T01:35:15.964Z,57.80
2018-11-21T01:37:44.489Z,57.80
2018-11-21T01:40:13.034Z,57.80
2018-11-21T01:42:41.581Z,57.80
2018-11-21T01:45:10.107Z,57.70
2018-11-21T01:47:38.631Z,57.70
2018-11-21T01:50:08.227Z,57.70
2018-11-21T01:52:36.908Z,57.70
2018-11-21T01:55:06.458Z,57.70
2018-11-21T01:57:34.993Z,57.70
2018-11-21T02:00:04.246Z,57.70
2018-11-21T02:02:32.813Z,57.70
2018-11-21T02:05:01.707Z,57.70
2018-11-21T02:07:30.241Z,57.70
2018-11-21T02:09:58.787Z,57.80
2018-11-21T02:12:27.374Z,57.80
2018-11-21T02:14:56.212Z,57.70
2018-11-21T02:17:24.767Z,57.70
2018-11-21T02:19:53.312Z,57.70
2018-11-21T02:22:21.864Z,57.80
2018-11-21T02:24:50.418Z,57.80
2018-11-21T02:27:18.975Z,57.80
2018-11-21T02:29:47.511Z,57.80
2018-11-21T02:32:16.054Z,57.80
2018-11-21T02:34:44.579Z,57.80
2018-11-21T02:37:13.104Z,57.80
2018-11-21T02:39:41.663Z,57.80
2018-11-21T02:42:10.180Z,57.90
2018-11-21T02:44:38.746Z,57.80
2018-11-21T02:47:07.261Z,57.80
2018-11-21T02:49:35.789Z,57.80
2018-11-21T02:52:04.311Z,57.90
2018-11-21T02:54:32.863Z,57.80
2018-11-21T02:57:21.590Z,57.80
2018-11-21T02:59:52.586Z,57.90
2018-11-21T03:02:21.139Z,57.80
2018-11-21T03:04:49.657Z,57.80
2018-11-21T03:07:18.222Z,57.90
2018-11-21T03:09:46.761Z,58.00
2018-11-21T03:12:15.275Z,57.90
2018-11-21T03:14:43.822Z,57.90
2018-11-21T03:17:12.368Z,57.90
2018-11-21T03:19:40.929Z,58.00
2018-11-21T03:22:09.456Z,58.00
2018-11-21T03:24:37.979Z,57.90
2018-11-21T03:27:06.530Z,57.90
2018-11-21T03:29:35.059Z,57.90
2018-11-21T03:32:03.632Z,57.90
2018-11-21T03:34:32.174Z,57.90
2018-11-21T03:37:00.704Z,57.90
2018-11-21T03:39:29.247Z,57.90
2018-11-21T03:41:57.784Z,57.90
2018-11-21T03:44:26.307Z,57.90
2018-11-21T03:46:54.855Z,58.00
2018-11-21T03:49:23.419Z,57.90
2018-11-21T03:51:51.944Z,57.90
2018-11-21T03:54:20.467Z,58.00
2018-11-21T03:56:49.042Z,57.90
2018-11-21T03:59:17.573Z,57.90
2018-11-21T04:01:46.100Z,58.00
2018-11-21T04:04:14.654Z,58.50
2018-11-21T04:06:43.185Z,57.90
2018-11-21T04:09:12.745Z,58.00
2018-11-21T04:11:41.384Z,58.00
2018-11-21T04:14:09.941Z,57.90
2018-11-21T04:16:38.489Z,57.90
2018-11-21T04:19:07.007Z,57.90
2018-11-21T04:21:35.535Z,57.90
2018-11-21T04:24:04.197Z,57.90
2018-11-21T04:26:32.717Z,58.00
2018-11-21T04:29:01.325Z,58.00
2018-11-21T04:31:29.869Z,58.00
2018-11-21T04:33:58.400Z,58.00
2018-11-21T04:36:27.008Z,58.70
2018-11-21T04:38:55.533Z,58.00
2018-11-21T04:41:24.054Z,58.00
2018-11-21T04:43:52.599Z,58.10
2018-11-21T04:46:21.152Z,58.10
2018-11-21T04:48:49.684Z,58.10
2018-11-21T04:51:18.216Z,57.70
2018-11-21T04:53:46.775Z,58.10
2018-11-21T04:56:15.294Z,58.10
2018-11-21T04:58:43.882Z,58.10
2018-11-21T05:01:12.496Z,58.20
2018-11-21T05:03:41.026Z,58.10
2018-11-21T05:06:09.590Z,58.10
2018-11-21T05:08:38.106Z,58.10
2018-11-21T05:11:06.739Z,58.10
2018-11-21T05:13:35.305Z,58.10
2018-11-21T05:16:04.221Z,58.10
2018-11-21T05:18:32.761Z,58.10
2018-11-21T05:21:01.914Z,58.10
2018-11-21T05:23:30.439Z,58.20
2018-11-21T05:25:58.984Z,58.10
2018-11-21T05:28:27.569Z,58.10
2018-11-21T05:30:56.101Z,58.20
2018-11-21T05:33:26.310Z,58.10
2018-11-21T05:35:54.866Z,58.20
2018-11-21T05:38:23.403Z,58.10
2018-11-21T05:40:51.968Z,58.60
2018-11-21T05:43:20.497Z,58.20
2018-11-21T05:45:49.026Z,58.20
2018-11-21T05:48:17.572Z,58.10
2018-11-21T05:50:46.107Z,58.20
2018-11-21T05:53:14.723Z,58.10
2018-11-21T05:55:43.254Z,58.10
2018-11-21T05:58:11.789Z,58.10
2018-11-21T06:00:40.350Z,58.10
2018-11-21T06:03:08.871Z,58.10
2018-11-21T06:05:37.423Z,58.10
2018-11-21T06:08:06.199Z,58.20
2018-11-21T06:10:34.730Z,58.10
2018-11-21T06:13:03.287Z,58.10
2018-11-21T06:15:31.819Z,58.70
2018-11-21T06:18:00.341Z,58.10
2018-11-21T06:20:28.887Z,58.10
2018-11-21T06:22:57.419Z,58.10
2018-11-21T06:25:25.976Z,58.10
2018-11-21T06:27:54.497Z,58.10
2018-11-21T06:30:23.028Z,58.10
2018-11-21T06:32:51.569Z,58.10
2018-11-21T06:35:20.112Z,58.10
2018-11-21T06:37:48.663Z,58.10
2018-11-21T06:40:17.192Z,58.00
2018-11-21T06:42:56.090Z,58.00
2018-11-21T06:45:25.971Z,58.00
2018-11-21T06:47:54.761Z,58.00
2018-11-21T06:50:23.352Z,58.00
2018-11-21T06:52:52.375Z,58.00
2018-11-21T06:55:20.902Z,58.00
2018-11-21T06:57:49.451Z,58.00
2018-11-21T07:00:17.971Z,58.10
2018-11-21T07:02:46.528Z,58.00
2018-11-21T07:05:15.049Z,58.00
2018-11-21T07:07:43.581Z,58.00
2018-11-21T07:10:13.984Z,58.00
2018-11-21T07:12:43.166Z,58.00
2018-11-21T07:15:11.805Z,58.00
2018-11-21T07:17:40.359Z,57.90
2018-11-21T07:20:11.110Z,57.90
2018-11-21T07:22:39.940Z,57.90
2018-11-21T07:25:22.467Z,57.90
2018-11-21T07:27:50.943Z,57.90
2018-11-21T07:30:19.828Z,57.90
2018-11-21T07:32:48.376Z,57.90
2018-11-21T07:35:18.081Z,57.90
2018-11-21T07:37:46.068Z,57.90
2018-11-21T07:40:15.382Z,57.90
2018-11-21T07:42:43.952Z,57.90
2018-11-21T07:45:14.119Z,57.90
2018-11-21T07:47:43.279Z,57.90
2018-11-21T07:50:14.219Z,57.90
2018-11-21T07:52:43.137Z,57.90
2018-11-21T07:55:12.309Z,57.90
2018-11-21T07:57:48.589Z,57.90
2018-11-21T08:01:09.208Z,58.00
2018-11-21T08:03:59.871Z,57.90
2018-11-21T08:06:59.680Z,57.80
2018-11-21T08:09:56.163Z,57.90
2018-11-21T08:12:49.287Z,57.80
2018-11-21T08:15:35.499Z,57.80
2018-11-21T08:18:16.884Z,57.80
2018-11-21T08:21:16.335Z,57.80
2018-11-21T08:24:05.954Z,57.80
2018-11-21T08:26:52.587Z,57.80
2018-11-21T08:29:21.091Z,57.80
2018-11-21T08:31:49.616Z,58.40
2018-11-21T08:34:18.165Z,57.80
2018-11-21T08:36:46.705Z,57.80
2018-11-21T08:39:15.262Z,57.80
2018-11-21T08:41:43.790Z,57.80
2018-11-21T08:44:12.330Z,57.80
2018-11-21T08:46:40.896Z,57.80
2018-11-21T08:49:09.423Z,57.80
2018-11-21T08:51:37.944Z,57.70
2018-11-21T08:54:06.492Z,57.80
2018-11-21T08:56:35.028Z,57.80
2018-11-21T08:59:03.591Z,57.80
2018-11-21T09:01:32.110Z,57.80
2018-11-21T09:04:00.642Z,57.80
2018-11-21T09:06:29.204Z,57.70
2018-11-21T09:08:57.732Z,57.80
2018-11-21T09:11:26.263Z,57.80
2018-11-21T09:13:54.822Z,57.80
2018-11-21T09:16:23.338Z,57.70
2018-11-21T09:18:51.892Z,57.70
2018-11-21T09:21:20.447Z,57.70
2018-11-21T09:23:49.066Z,57.70
2018-11-21T09:26:17.603Z,57.80
2018-11-21T09:28:46.165Z,57.80
2018-11-21T09:31:14.697Z,57.40
2018-11-21T09:33:43.212Z,57.80
2018-11-21T09:36:11.772Z,57.70
2018-11-21T09:38:40.315Z,57.70
2018-11-21T09:41:08.860Z,57.80
2018-11-21T09:43:37.410Z,57.80
2018-11-21T09:46:06.042Z,57.70
2018-11-21T09:48:34.603Z,57.70
2018-11-21T09:51:03.131Z,57.70
2018-11-21T09:53:31.658Z,57.70
2018-11-21T09:56:00.218Z,57.90
2018-11-21T09:58:28.742Z,57.70
2018-11-21T10:01:33.731Z,57.70
2018-11-21T10:04:02.225Z,57.70
2018-11-21T10:06:33.425Z,57.60
2018-11-21T10:09:05.043Z,57.60
2018-11-21T10:11:34.520Z,57.70
2018-11-21T10:14:03.051Z,57.70
2018-11-21T10:16:31.604Z,57.70
2018-11-21T10:19:00.580Z,57.60
2018-11-21T10:21:30.587Z,57.60
2018-11-21T10:23:59.144Z,57.70
2018-11-21T10:26:27.669Z,57.70
2018-11-21T10:28:56.446Z,57.60
2018-11-21T10:31:25.003Z,57.70
2018-11-21T10:33:53.528Z,57.60
2018-11-21T10:36:22.087Z,57.60
2018-11-21T10:38:50.661Z,57.60
2018-11-21T10:41:19.275Z,57.60
2018-11-21T10:43:47.837Z,57.50
2018-11-21T10:46:16.367Z,57.50
2018-11-21T10:48:52.816Z,57.50
2018-11-21T10:51:21.378Z,57.40
2018-11-21T10:53:49.890Z,57.40
2018-11-21T10:56:18.443Z,57.50
2018-11-21T10:58:46.976Z,57.40
2018-11-21T11:01:46.771Z,57.40
2018-11-21T11:04:42.215Z,57.40
2018-11-21T11:07:28.569Z,57.30
2018-11-21T11:10:18.836Z,57.10
2018-11-21T11:13:12.262Z,57.40
2018-11-21T11:15:58.795Z,57.30
2018-11-21T11:18:55.554Z,57.20
2018-11-21T11:21:41.966Z,57.20
2018-11-21T11:24:27.427Z,57.20
2018-11-21T11:28:00.176Z,57.20
2018-11-21T11:30:48.911Z,57.20
2018-11-21T11:33:33.340Z,57.10
2018-11-21T11:36:20.836Z,57.10
2018-11-21T11:39:13.173Z,57.10
2018-11-21T11:42:14.221Z,57.10
2018-11-21T11:45:01.490Z,57.10
2018-11-21T11:48:08.110Z,57.10
2018-11-21T11:50:48.885Z,57.00
2018-11-21T11:53:40.177Z,57.10
2018-11-21T11:56:37.700Z,57.10
2018-11-21T11:59:25.225Z,57.10
2018-11-21T12:02:13.416Z,57.20
2018-11-21T12:05:00.225Z,57.20
2018-11-21T12:07:51.641Z,57.40
2018-11-21T12:10:55.237Z,57.60
2018-11-21T12:13:49.509Z,57.70
2018-11-21T12:16:36.953Z,57.70
2018-11-21T12:19:25.646Z,57.70
2018-11-21T12:22:16.933Z,58.20
2018-11-21T12:25:08.221Z,57.70
2018-11-21T12:27:47.314Z,58.00
2018-11-21T12:30:35.964Z,57.80
2018-11-21T12:33:33.780Z,57.70
2018-11-21T12:36:34.512Z,57.70
2018-11-21T12:39:33.648Z,57.70
2018-11-21T12:42:21.109Z,57.50
2018-11-21T12:45:18.429Z,57.30
2018-11-21T12:48:05.581Z,57.20
2018-11-21T12:50:45.823Z,57.10
2018-11-21T12:53:30.610Z,56.90
2018-11-21T12:56:18.301Z,56.80
2018-11-21T12:59:05.457Z,56.60
2018-11-21T13:01:52.924Z,56.60
2018-11-21T13:04:53.556Z,56.40
2018-11-21T13:08:00.717Z,56.30
2018-11-21T13:10:52.337Z,56.20
2018-11-21T13:13:53.245Z,56.00
2018-11-21T13:16:36.046Z,55.90
2018-11-21T13:19:27.521Z,55.80
2018-11-21T13:22:28.506Z,55.70
2018-11-21T13:25:22.620Z,56.10
2018-11-21T13:28:24.870Z,55.50
2018-11-21T13:31:12.065Z,55.40
2018-11-21T13:34:06.849Z,55.30
2018-11-21T13:36:50.136Z,55.10
2018-11-21T13:39:47.389Z,55.30
2018-11-21T13:42:38.956Z,55.00
2018-11-21T13:45:24.466Z,54.90
2018-11-21T13:48:22.016Z,54.90
2018-11-21T13:51:25.600Z,54.90
2018-11-21T13:54:17.179Z,55.50
2018-11-21T13:56:48.393Z,54.70
2018-11-21T13:59:18.409Z,54.60
2018-11-21T14:01:48.455Z,54.60
2018-11-21T14:04:18.484Z,54.50
2018-11-21T14:06:48.508Z,54.40
2018-11-21T14:09:22.087Z,54.40
2018-11-21T14:11:52.610Z,54.40
2018-11-21T14:14:22.664Z,54.30
2018-11-21T14:16:52.800Z,54.30
2018-11-21T14:19:22.820Z,54.40
2018-11-21T14:21:56.027Z,54.30
2018-11-21T14:24:23.021Z,54.30
2018-11-21T14:26:53.178Z,54.30
2018-11-21T14:29:23.189Z,54.30
2018-11-21T14:31:53.235Z,54.30
2018-11-21T14:34:23.320Z,54.30
2018-11-21T14:36:53.442Z,54.40
2018-11-21T14:39:23.585Z,54.20
2018-11-21T14:41:53.646Z,54.30
2018-11-21T14:44:23.686Z,54.40
2018-11-21T14:46:54.950Z,54.30
2018-11-21T14:49:25.005Z,54.20
2018-11-21T14:51:55.026Z,54.30
2018-11-21T14:54:25.046Z,54.30
2018-11-21T14:56:55.091Z,54.20
2018-11-21T14:59:25.226Z,54.30
2018-11-21T15:01:55.272Z,54.30
2018-11-21T15:04:25.329Z,54.40
2018-11-21T15:06:55.349Z,54.40
2018-11-21T15:09:25.378Z,54.40
2018-11-21T15:11:55.422Z,54.50
2018-11-21T15:14:25.457Z,54.50
2018-11-21T15:16:55.590Z,54.50
2018-11-21T15:19:25.637Z,54.50
2018-11-21T15:21:55.682Z,54.60
2018-11-21T15:24:25.841Z,54.50
2018-11-21T15:26:55.869Z,54.50
2018-11-21T15:29:25.941Z,54.60
2018-11-21T15:31:56.069Z,54.70
2018-11-21T15:34:26.206Z,54.70
2018-11-21T15:36:56.625Z,54.70
2018-11-21T15:39:26.657Z,54.80
2018-11-21T15:41:56.708Z,54.90
2018-11-21T15:44:26.741Z,54.90
2018-11-21T15:46:56.762Z,54.90
2018-11-21T15:49:26.804Z,55.00
2018-11-21T15:52:01.252Z,55.00
2018-11-21T15:54:26.906Z,55.00
2018-11-21T15:56:56.958Z,55.00
2018-11-21T15:59:27.101Z,55.10
2018-11-21T16:01:57.201Z,55.10
2018-11-21T16:04:27.363Z,55.10
2018-11-21T16:06:57.393Z,55.10
2018-11-21T16:09:27.421Z,55.20
2018-11-21T16:11:57.464Z,55.20
2018-11-21T16:14:27.509Z,55.20
2018-11-21T16:16:57.554Z,55.20
2018-11-21T16:19:27.580Z,55.30
2018-11-21T16:21:57.745Z,55.30
2018-11-21T16:24:27.799Z,55.20
2018-11-21T16:26:58.220Z,55.30
2018-11-21T16:29:28.254Z,55.30
2018-11-21T16:31:58.399Z,55.30
2018-11-21T16:34:28.413Z,55.30
2018-11-21T16:36:58.466Z,55.30
2018-11-21T16:39:28.689Z,55.30
2018-11-21T16:41:58.902Z,55.40
2018-11-21T16:44:28.966Z,55.40
2018-11-21T16:46:59.097Z,55.50
2018-11-21T16:49:29.120Z,55.40
2018-11-21T16:51:59.182Z,55.40
2018-11-21T16:54:29.217Z,55.40
2018-11-21T16:56:59.245Z,55.50
2018-11-21T16:59:29.305Z,55.50
2018-11-21T17:01:59.435Z,55.50
2018-11-21T17:04:29.530Z,55.50
2018-11-21T17:06:59.553Z,55.50
2018-11-21T17:09:40.604Z,55.60
2018-11-21T17:12:12.329Z,55.60
2018-11-21T17:14:42.759Z,55.60
2018-11-21T17:17:12.801Z,55.70
2018-11-21T17:19:42.837Z,55.80
2018-11-21T17:22:12.897Z,55.80
2018-11-21T17:24:43.041Z,55.80
2018-11-21T17:27:13.065Z,55.90
2018-11-21T17:29:53.581Z,55.80
2018-11-21T17:32:13.262Z,55.90
2018-11-21T17:34:43.422Z,55.90
2018-11-21T17:37:13.461Z,56.00
2018-11-21T17:39:43.492Z,56.00
2018-11-21T17:42:13.549Z,56.00
2018-11-21T17:44:43.734Z,56.10
2018-11-21T17:47:13.759Z,56.20
2018-11-21T17:52:13.930Z,56.20
2018-11-21T17:54:43.959Z,56.20
2018-11-21T17:57:14.000Z,56.30
2018-11-21T17:59:44.029Z,56.90
2018-11-21T18:02:14.200Z,56.30
2018-11-21T18:04:44.204Z,56.30
2018-11-21T18:07:14.241Z,56.90
2018-11-21T18:09:44.286Z,56.50
2018-11-21T18:12:14.321Z,56.50
2018-11-21T18:14:44.369Z,56.50
2018-11-21T18:17:14.497Z,56.60
2018-11-21T18:19:44.617Z,56.60
2018-11-21T18:22:14.757Z,56.60
2018-11-21T18:24:44.773Z,56.60
2018-11-21T18:27:14.789Z,56.60
2018-11-21T18:29:44.835Z,56.70
2018-11-21T18:32:14.904Z,56.70
2018-11-21T18:34:45.027Z,56.70
2018-11-21T18:37:15.152Z,56.80
2018-11-21T18:39:45.218Z,56.80
2018-11-21T18:42:15.616Z,56.80
2018-11-21T18:44:45.701Z,56.80
2018-11-21T18:47:15.801Z,56.80
2018-11-21T18:49:45.846Z,56.80
2018-11-21T18:52:15.901Z,56.80
2018-11-21T18:54:45.934Z,56.80
2018-11-21T18:57:53.721Z,56.80
2018-11-21T19:00:26.489Z,56.80
2018-11-21T19:02:56.577Z,56.80
2018-11-21T19:05:26.837Z,56.90
2018-11-21T19:07:56.889Z,56.90
2018-11-21T19:10:27.749Z,56.80
2018-11-21T19:12:57.886Z,56.80
2018-11-21T19:15:28.030Z,56.90
2018-11-21T19:17:58.061Z,56.90
2018-11-21T19:20:28.232Z,56.90
2018-11-21T19:22:58.262Z,56.90
2018-11-21T19:25:28.316Z,57.00
2018-11-21T19:27:59.113Z,57.00
2018-11-21T19:30:29.221Z,56.90
2018-11-21T19:33:00.096Z,57.00
2018-11-21T19:35:31.712Z,56.90
2018-11-21T19:38:01.764Z,56.90
2018-11-21T19:40:31.930Z,56.90
2018-11-21T19:43:02.778Z,56.90
2018-11-21T19:45:32.845Z,56.80
2018-11-21T19:48:02.883Z,56.90
2018-11-21T19:50:32.957Z,56.80
2018-11-21T19:53:03.029Z,56.80
2018-11-21T19:55:34.946Z,56.80
2018-11-21T19:58:05.021Z,56.80
2018-11-21T20:00:36.748Z,56.80
2018-11-21T20:03:07.645Z,56.70
2018-11-21T20:05:37.736Z,56.70
2018-11-21T20:08:07.868Z,56.70
2018-11-21T20:10:37.889Z,56.60
2018-11-21T20:13:07.957Z,56.70
2018-11-21T20:15:38.049Z,56.70
2018-11-21T20:18:08.142Z,56.60
2018-11-21T20:20:38.758Z,56.60
2018-11-21T20:23:08.902Z,56.70
2018-11-21T20:25:39.065Z,56.60
2018-11-21T20:28:09.130Z,56.60
2018-11-21T20:30:40.293Z,56.60
2018-11-21T20:33:10.813Z,56.60
2018-11-21T20:35:40.834Z,56.50
2018-11-21T20:38:10.961Z,56.50
2018-11-21T20:40:41.513Z,56.40
2018-11-21T20:43:11.537Z,56.40
2018-11-21T20:45:41.678Z,56.40
2018-11-21T20:48:11.817Z,56.40
2018-11-21T20:50:41.858Z,56.40
2018-11-21T20:53:11.913Z,56.40
2018-11-21T20:55:42.567Z,56.40
2018-11-21T20:58:12.637Z,56.40
2018-11-21T21:00:42.774Z,56.40
2018-11-21T21:03:12.827Z,56.30
2018-11-21T21:05:43.332Z,56.30
2018-11-21T21:08:13.474Z,56.20
2018-11-21T21:10:48.129Z,56.10
2018-11-21T21:13:18.276Z,56.10
2018-11-21T21:15:48.363Z,56.20
2018-11-21T21:18:18.384Z,56.10
2018-11-21T21:20:48.509Z,56.10
2018-11-21T21:23:18.576Z,56.10
2018-11-21T21:25:48.724Z,56.10
2018-11-21T21:28:18.829Z,56.00
2018-11-21T21:30:49.757Z,56.70
2018-11-21T21:33:19.791Z,56.00
2018-11-21T21:35:50.320Z,56.00
2018-11-21T21:38:20.386Z,56.00
2018-11-21T21:40:50.418Z,56.00
2018-11-21T21:43:20.504Z,56.00
2018-11-21T21:45:51.348Z,56.00
2018-11-21T21:48:21.436Z,56.00
2018-11-21T21:50:51.476Z,55.90
2018-11-21T21:53:21.564Z,55.40
2018-11-21T21:55:52.666Z,56.00
2018-11-21T21:58:22.829Z,56.00
2018-11-21T22:00:52.881Z,55.90
2018-11-21T22:03:22.909Z,55.90
2018-11-21T22:05:53.879Z,55.90
2018-11-21T22:08:25.011Z,55.80
2018-11-21T22:10:55.035Z,55.90
2018-11-21T22:13:25.877Z,55.90
2018-11-21T22:15:55.980Z,55.90
2018-11-21T22:18:26.141Z,55.90
2018-11-21T22:20:56.210Z,55.90
2018-11-21T22:23:26.352Z,56.30
2018-11-21T22:25:56.485Z,55.80
2018-11-21T22:28:26.548Z,55.90
2018-11-21T22:30:56.572Z,55.90
2018-11-21T22:33:28.068Z,55.90
2018-11-21T22:36:02.775Z,55.90
2018-11-21T22:38:30.852Z,55.90
2018-11-21T22:40:58.664Z,55.90
2018-11-21T22:43:28.697Z,55.90
2018-11-21T22:45:58.802Z,56.00
2018-11-21T22:48:28.837Z,55.90
2018-11-21T22:50:59.181Z,55.90
2018-11-21T22:53:30.033Z,55.90
2018-11-21T22:56:10.466Z,55.90
2018-11-21T22:58:51.343Z,55.80
2018-11-21T23:01:34.409Z,55.80
2018-11-21T23:04:19.434Z,55.80
2018-11-21T23:06:59.187Z,55.80
2018-11-21T23:09:38.569Z,55.80
2018-11-21T23:12:19.899Z,55.80
2018-11-21T23:14:59.976Z,55.80
2018-11-21T23:17:31.266Z,55.80
2018-11-21T23:20:01.518Z,55.80
2018-11-21T23:22:32.594Z,55.90
2018-11-21T23:25:01.698Z,55.90
2018-11-21T23:27:32.589Z,55.80
2018-11-21T23:30:02.625Z,55.90
2018-11-21T23:32:32.684Z,55.90
2018-11-21T23:35:03.510Z,55.90
2018-11-21T23:37:33.537Z,55.90
2018-11-21T23:40:03.587Z,56.00
2018-11-21T23:42:34.461Z,55.90
2018-11-21T23:45:04.697Z,55.80
2018-11-21T23:47:34.829Z,55.80
2018-11-21T23:50:05.105Z,55.80
2018-11-21T23:52:35.529Z,56.30
2018-11-21T23:55:05.873Z,55.80
2018-11-21T23:57:36.010Z,55.70
